createdAt,value
2017-12-11T00:00:48.595Z,1.00
2017-12-11T00:02:04.432Z,0.93
2017-12-11T00:03:20.265Z,1.13
2017-12-11T00:04:36.135Z,0.97
2017-12-11T00:05:51.982Z,1.20
2017-12-11T00:07:07.815Z,1.33
2017-12-11T00:08:23.757Z,1.40
2017-12-11T00:09:39.587Z,1.35
2017-12-11T00:10:55.439Z,0.80
2017-12-11T00:12:11.297Z,1.00
2017-12-11T00:13:27.121Z,0.90
2017-12-11T00:14:42.958Z,1.10
2017-12-11T00:15:58.779Z,0.90
2017-12-11T00:17:15.207Z,0.90
2017-12-11T00:18:31.051Z,1.15
2017-12-11T00:19:46.897Z,0.90
2017-12-11T00:21:02.731Z,1.10
2017-12-11T00:22:18.599Z,1.30
2017-12-11T00:23:34.427Z,1.17
2017-12-11T00:24:50.295Z,1.03
2017-12-11T00:26:06.127Z,1.20
2017-12-11T00:27:21.946Z,1.50
2017-12-11T00:28:37.766Z,1.00
2017-12-11T00:29:53.643Z,0.87
2017-12-11T00:31:09.584Z,1.30
2017-12-11T00:32:25.417Z,1.17
2017-12-11T00:33:41.247Z,0.93
2017-12-11T00:34:57.104Z,1.30
2017-12-11T00:36:12.943Z,1.27
2017-12-11T00:37:28.791Z,1.03
2017-12-11T00:38:44.642Z,1.50
2017-12-11T00:40:00.487Z,0.87
2017-12-11T00:41:16.416Z,1.20
2017-12-11T00:42:32.242Z,1.10
2017-12-11T00:43:48.091Z,1.10
2017-12-11T00:45:03.920Z,0.93
2017-12-11T00:46:19.783Z,1.13
2017-12-11T00:47:35.626Z,1.10
2017-12-11T00:48:51.459Z,1.13
2017-12-11T00:50:07.308Z,0.80
2017-12-11T00:51:23.160Z,1.17
2017-12-11T00:52:39.048Z,1.03
2017-12-11T00:53:54.884Z,0.80
2017-12-11T00:55:10.723Z,1.00
2017-12-11T00:56:26.592Z,0.73
2017-12-11T00:57:42.439Z,1.03
2017-12-11T00:58:58.258Z,0.80
2017-12-11T01:00:14.093Z,1.13
2017-12-11T01:01:29.959Z,0.80
2017-12-11T01:02:45.781Z,0.80
2017-12-11T01:04:01.620Z,1.00
2017-12-11T01:05:17.461Z,1.10
2017-12-11T01:06:33.326Z,1.10
2017-12-11T01:07:49.149Z,1.17
2017-12-11T01:09:04.979Z,1.00
2017-12-11T01:10:20.803Z,0.83
2017-12-11T01:11:36.655Z,1.17
2017-12-11T01:12:52.496Z,1.10
2017-12-11T01:14:08.378Z,1.23
2017-12-11T01:15:24.196Z,1.00
2017-12-11T01:16:40.059Z,1.10
2017-12-11T01:17:55.886Z,0.83
2017-12-11T01:19:11.707Z,0.90
2017-12-11T01:20:27.536Z,1.20
2017-12-11T01:21:43.359Z,0.90
2017-12-11T01:22:59.221Z,1.30
2017-12-11T01:24:15.039Z,1.40
2017-12-11T01:25:30.900Z,0.63
2017-12-11T01:26:46.719Z,0.90
2017-12-11T01:28:02.598Z,0.83
2017-12-11T01:29:18.415Z,0.90
2017-12-11T01:30:34.239Z,1.00
2017-12-11T01:31:50.087Z,1.00
2017-12-11T01:33:05.959Z,1.00
2017-12-11T01:34:21.810Z,1.00
2017-12-11T01:35:37.653Z,0.77
2017-12-11T01:36:53.503Z,1.03
2017-12-11T01:38:09.342Z,0.90
2017-12-11T01:39:25.155Z,1.13
2017-12-11T01:40:40.988Z,0.90
2017-12-11T01:41:56.828Z,1.10
2017-12-11T01:43:13.296Z,0.70
2017-12-11T01:44:29.123Z,1.00
2017-12-11T01:45:44.988Z,1.40
2017-12-11T01:47:00.803Z,0.73
2017-12-11T01:48:16.655Z,0.90
2017-12-11T01:49:32.487Z,0.80
2017-12-11T01:50:48.325Z,1.20
2017-12-11T01:52:04.156Z,0.97
2017-12-11T01:53:20.020Z,1.00
2017-12-11T01:54:35.847Z,0.90
2017-12-11T01:55:51.691Z,0.70
2017-12-11T01:57:07.519Z,0.80
2017-12-11T01:58:23.360Z,0.77
2017-12-11T01:59:39.184Z,0.80
2017-12-11T02:00:55.011Z,1.00
2017-12-11T02:02:10.859Z,0.83
2017-12-11T02:03:26.712Z,0.67
2017-12-11T02:04:42.551Z,0.50
2017-12-11T02:05:58.383Z,0.90
2017-12-11T02:07:14.227Z,0.63
2017-12-11T02:08:30.092Z,0.90
2017-12-11T02:09:45.930Z,0.93
2017-12-11T02:11:01.754Z,1.00
2017-12-11T02:12:17.583Z,0.80
2017-12-11T02:13:33.448Z,0.60
2017-12-11T02:14:49.287Z,0.80
2017-12-11T02:16:05.139Z,0.60
2017-12-11T02:17:20.971Z,0.80
2017-12-11T02:18:36.828Z,1.00
2017-12-11T02:19:52.658Z,0.70
2017-12-11T02:21:08.494Z,0.70
2017-12-11T02:22:24.326Z,1.00
2017-12-11T02:23:40.186Z,1.10
2017-12-11T02:24:56.011Z,0.87
2017-12-11T02:26:11.838Z,0.90
2017-12-11T02:27:27.669Z,0.70
2017-12-11T02:28:43.567Z,0.77
2017-12-11T02:29:59.419Z,1.00
2017-12-11T02:31:15.245Z,0.97
2017-12-11T02:32:31.079Z,0.97
2017-12-11T02:33:46.938Z,0.80
2017-12-11T02:35:02.776Z,1.03
2017-12-11T02:36:18.601Z,0.70
2017-12-11T02:37:34.432Z,0.80
2017-12-11T02:38:50.288Z,0.67
2017-12-11T02:40:06.111Z,0.70
2017-12-11T02:41:21.939Z,0.80
2017-12-11T02:42:37.788Z,0.90
2017-12-11T02:43:53.633Z,1.10
2017-12-11T02:45:09.545Z,0.80
2017-12-11T02:46:25.367Z,1.03
2017-12-11T02:47:41.197Z,0.60
2017-12-11T02:48:57.060Z,0.97
2017-12-11T02:50:12.899Z,0.50
2017-12-11T02:51:28.736Z,0.50
2017-12-11T02:52:44.552Z,0.90
2017-12-11T02:54:00.390Z,0.97
2017-12-11T02:55:16.223Z,0.80
2017-12-11T02:56:32.071Z,0.70
2017-12-11T02:57:47.894Z,0.90
2017-12-11T02:59:03.711Z,0.60
2017-12-11T03:00:19.535Z,0.70
2017-12-11T03:01:35.392Z,0.80
2017-12-11T03:02:51.223Z,0.57
2017-12-11T03:04:07.776Z,0.80
2017-12-11T03:05:23.609Z,0.75
2017-12-11T03:06:39.451Z,0.70
2017-12-11T03:07:55.299Z,0.60
2017-12-11T03:09:11.127Z,0.60
2017-12-11T03:10:26.947Z,0.40
2017-12-11T03:11:42.787Z,0.90
2017-12-11T03:12:58.631Z,0.60
2017-12-11T03:14:14.470Z,0.73
2017-12-11T03:15:30.299Z,0.70
2017-12-11T03:16:46.119Z,0.67
2017-12-11T03:18:01.951Z,1.23
2017-12-11T03:19:17.798Z,0.60
2017-12-11T03:20:33.630Z,0.60
2017-12-11T03:21:49.448Z,0.60
2017-12-11T03:23:05.400Z,0.80
2017-12-11T03:24:21.227Z,0.70
2017-12-11T03:25:37.058Z,0.90
2017-12-11T03:26:52.897Z,0.90
2017-12-11T03:28:08.740Z,0.70
2017-12-11T03:29:24.567Z,1.00
2017-12-11T03:30:40.397Z,0.97
2017-12-11T03:31:56.247Z,0.80
2017-12-11T03:33:12.092Z,0.60
2017-12-11T03:34:27.928Z,0.70
2017-12-11T03:35:43.744Z,0.53
2017-12-11T03:36:59.578Z,0.60
2017-12-11T03:38:15.416Z,0.87
2017-12-11T03:39:31.243Z,0.97
2017-12-11T03:40:47.068Z,0.63
2017-12-11T03:42:02.923Z,0.80
2017-12-11T03:43:18.762Z,0.90
2017-12-11T03:44:34.612Z,0.80
2017-12-11T03:45:50.524Z,0.90
2017-12-11T03:47:06.320Z,0.80
2017-12-11T03:48:22.172Z,0.70
2017-12-11T03:49:38.027Z,0.70
2017-12-11T03:50:53.870Z,0.70
2017-12-11T03:52:09.698Z,0.60
2017-12-11T03:53:25.540Z,1.00
2017-12-11T03:54:41.415Z,0.60
2017-12-11T03:55:57.236Z,0.63
2017-12-11T03:57:13.059Z,0.60
2017-12-11T03:58:28.903Z,0.70
2017-12-11T03:59:44.759Z,0.40
2017-12-11T04:01:00.598Z,0.70
2017-12-11T04:02:16.426Z,0.70
2017-12-11T04:03:32.264Z,0.40
2017-12-11T04:04:48.115Z,0.70
2017-12-11T04:06:03.952Z,0.50
2017-12-11T04:07:19.781Z,0.60
2017-12-11T04:08:35.617Z,0.70
2017-12-11T04:09:51.480Z,0.70
2017-12-11T04:11:07.306Z,0.67
2017-12-11T04:12:23.150Z,0.83
2017-12-11T04:13:39.002Z,0.80
2017-12-11T04:14:54.851Z,0.63
2017-12-11T04:16:10.683Z,0.67
2017-12-11T04:17:26.528Z,0.50
2017-12-11T04:18:42.352Z,0.70
2017-12-11T04:19:58.222Z,0.73
2017-12-11T04:21:14.048Z,1.03
2017-12-11T04:22:29.952Z,0.50
2017-12-11T04:23:45.786Z,0.80
2017-12-11T04:25:01.616Z,0.40
2017-12-11T04:26:17.471Z,0.60
2017-12-11T04:27:33.315Z,0.70
2017-12-11T04:28:49.151Z,0.60
2017-12-11T04:30:04.980Z,0.50
2017-12-11T04:31:20.804Z,0.60
2017-12-11T04:32:36.655Z,0.60
2017-12-11T04:33:52.494Z,0.73
2017-12-11T04:35:08.358Z,0.60
2017-12-11T04:36:24.174Z,0.70
2017-12-11T04:37:40.052Z,0.60
2017-12-11T04:38:55.871Z,0.67
2017-12-11T04:40:11.713Z,0.87
2017-12-11T04:41:27.539Z,0.60
2017-12-11T04:42:43.362Z,0.80
2017-12-11T04:43:59.248Z,0.77
2017-12-11T04:45:15.081Z,1.00
2017-12-11T04:46:30.932Z,0.57
2017-12-11T04:47:46.749Z,0.40
2017-12-11T04:49:02.591Z,0.70
2017-12-11T04:50:18.513Z,0.40
2017-12-11T04:51:34.367Z,0.50
2017-12-11T04:52:50.198Z,0.63
2017-12-11T04:54:06.016Z,0.80
2017-12-11T04:55:21.867Z,0.60
2017-12-11T04:56:37.727Z,0.60
2017-12-11T04:57:53.589Z,0.53
2017-12-11T04:59:09.410Z,0.60
2017-12-11T05:00:25.258Z,0.60
2017-12-11T05:01:41.098Z,1.07
2017-12-11T05:02:57.014Z,0.50
2017-12-11T05:04:12.809Z,0.60
2017-12-11T05:05:28.658Z,0.57
2017-12-11T05:06:44.483Z,0.80
2017-12-11T05:08:00.318Z,0.60
2017-12-11T05:09:16.171Z,0.53
2017-12-11T05:10:32.007Z,0.50
2017-12-11T05:11:47.868Z,0.40
2017-12-11T05:13:03.696Z,0.60
2017-12-11T05:14:19.543Z,0.60
2017-12-11T05:15:35.380Z,0.40
2017-12-11T05:16:51.219Z,0.60
2017-12-11T05:18:07.052Z,0.50
2017-12-11T05:19:22.883Z,0.50
2017-12-11T05:20:38.723Z,0.60
2017-12-11T05:21:54.578Z,0.60
2017-12-11T05:23:10.414Z,0.60
2017-12-11T05:24:26.252Z,0.70
2017-12-11T05:25:42.079Z,0.47
2017-12-11T05:26:57.928Z,1.00
2017-12-11T05:28:13.784Z,0.50
2017-12-11T05:29:29.607Z,0.60
2017-12-11T05:30:45.432Z,0.60
2017-12-11T05:32:01.271Z,0.73
2017-12-11T05:33:17.107Z,0.40
2017-12-11T05:34:32.939Z,0.50
2017-12-11T05:35:48.786Z,0.50
2017-12-11T05:37:04.634Z,0.50
2017-12-11T05:38:20.446Z,0.33
2017-12-11T05:39:36.292Z,0.50
2017-12-11T05:40:52.127Z,0.70
2017-12-11T05:42:07.967Z,0.40
2017-12-11T05:43:23.811Z,0.80
2017-12-11T05:44:39.655Z,0.50
2017-12-11T05:45:55.486Z,0.60
2017-12-11T05:47:11.299Z,0.50
2017-12-11T05:48:27.123Z,0.60
2017-12-11T05:49:42.960Z,0.63
2017-12-11T05:50:58.897Z,0.77
2017-12-11T05:52:14.751Z,0.60
2017-12-11T05:53:30.636Z,0.67
2017-12-11T05:54:46.467Z,0.70
2017-12-11T05:56:02.307Z,0.60
2017-12-11T05:57:18.148Z,0.57
2017-12-11T05:58:33.986Z,0.50
2017-12-11T05:59:49.806Z,0.60
2017-12-11T06:01:05.659Z,0.50
2017-12-11T06:02:21.490Z,0.30
2017-12-11T06:03:37.355Z,0.70
2017-12-11T06:04:53.327Z,0.60
2017-12-11T06:06:09.149Z,0.57
2017-12-11T06:07:24.987Z,0.30
2017-12-11T06:08:40.824Z,0.57
2017-12-11T06:09:56.647Z,0.50
2017-12-11T06:11:12.481Z,0.50
2017-12-11T06:12:28.336Z,0.60
2017-12-11T06:13:44.151Z,0.67
2017-12-11T06:14:59.978Z,0.60
2017-12-11T06:16:15.821Z,0.50
2017-12-11T06:17:31.683Z,0.50
2017-12-11T06:18:47.526Z,0.70
2017-12-11T06:20:03.346Z,0.70
2017-12-11T06:21:19.186Z,0.40
2017-12-11T06:22:35.025Z,0.90
2017-12-11T06:23:50.855Z,0.60
2017-12-11T06:25:06.682Z,0.57
2017-12-11T06:26:22.516Z,0.50
2017-12-11T06:27:38.331Z,0.60
2017-12-11T06:28:54.191Z,0.50
2017-12-11T06:30:10.024Z,0.40
2017-12-11T06:31:25.862Z,0.50
2017-12-11T06:32:41.686Z,0.53
2017-12-11T06:33:57.538Z,0.60
2017-12-11T06:35:13.363Z,0.60
2017-12-11T06:36:29.214Z,0.47
2017-12-11T06:37:45.052Z,0.53
2017-12-11T06:39:00.889Z,0.50
2017-12-11T06:40:16.751Z,0.40
2017-12-11T06:41:32.579Z,0.63
2017-12-11T06:42:48.435Z,0.43
2017-12-11T06:44:04.288Z,0.30
2017-12-11T06:45:20.146Z,0.50
2017-12-11T06:46:35.982Z,0.60
2017-12-11T06:47:51.830Z,0.50
2017-12-11T06:49:07.668Z,0.60
2017-12-11T06:50:23.529Z,0.50
2017-12-11T06:51:39.351Z,0.50
2017-12-11T06:52:55.187Z,0.40
2017-12-11T06:54:11.035Z,0.50
2017-12-11T06:55:26.902Z,0.60
2017-12-11T06:56:42.730Z,0.50
2017-12-11T06:57:58.553Z,0.50
2017-12-11T06:59:14.395Z,0.43
2017-12-11T07:00:30.239Z,0.63
2017-12-11T07:01:46.078Z,0.53
2017-12-11T07:03:01.927Z,0.50
2017-12-11T07:04:17.772Z,0.60
2017-12-11T07:05:33.622Z,0.50
2017-12-11T07:06:49.463Z,0.50
2017-12-11T07:08:05.295Z,0.63
2017-12-11T07:09:21.130Z,0.50
2017-12-11T07:10:36.996Z,0.50
2017-12-11T07:11:52.843Z,0.50
2017-12-11T07:13:08.792Z,0.67
2017-12-11T07:14:24.619Z,1.00
2017-12-11T07:15:40.471Z,1.87
2017-12-11T07:16:56.288Z,1.70
2017-12-11T07:18:12.120Z,3.87
2017-12-11T07:19:27.941Z,4.80
2017-12-11T07:20:44.411Z,4.40
2017-12-11T07:22:00.228Z,6.65
2017-12-11T07:23:16.051Z,5.70
2017-12-11T07:24:31.876Z,6.20
2017-12-11T07:25:47.726Z,6.13
2017-12-11T07:27:03.574Z,6.10
2017-12-11T07:28:19.449Z,6.43
2017-12-11T07:29:35.275Z,6.20
2017-12-11T07:30:51.125Z,6.30
2017-12-11T07:32:06.966Z,6.27
2017-12-11T07:33:22.827Z,6.30
2017-12-11T07:34:38.672Z,6.70
2017-12-11T07:35:54.619Z,7.43
2017-12-11T07:37:10.462Z,5.93
2017-12-11T07:38:26.296Z,6.43
2017-12-11T07:39:42.189Z,7.77
2017-12-11T07:40:58.049Z,7.30
2017-12-11T07:42:13.891Z,6.37
2017-12-11T07:43:29.744Z,6.43
2017-12-11T07:44:45.574Z,7.63
2017-12-11T07:46:01.434Z,7.67
2017-12-11T07:47:17.267Z,7.10
2017-12-11T07:48:33.099Z,8.07
2017-12-11T07:49:48.953Z,7.30
2017-12-11T07:51:04.780Z,8.00
2017-12-11T07:52:20.648Z,7.17
2017-12-11T07:53:36.487Z,8.10
2017-12-11T07:54:52.327Z,6.80
2017-12-11T07:56:08.163Z,7.67
2017-12-11T07:57:24.005Z,7.73
2017-12-11T07:58:39.837Z,7.80
2017-12-11T07:59:55.666Z,7.17
2017-12-11T08:01:11.498Z,8.03
2017-12-11T08:02:27.473Z,6.83
2017-12-11T08:03:43.298Z,7.80
2017-12-11T08:04:59.129Z,7.93
2017-12-11T08:06:14.982Z,8.33
2017-12-11T08:07:30.852Z,6.57
2017-12-11T08:08:46.687Z,8.00
2017-12-11T08:10:02.522Z,8.07
2017-12-11T08:11:18.359Z,6.53
2017-12-11T08:12:34.213Z,7.10
2017-12-11T08:13:50.059Z,7.43
2017-12-11T08:15:05.894Z,7.00
2017-12-11T08:16:21.712Z,6.50
2017-12-11T08:17:37.559Z,6.20
2017-12-11T08:18:53.407Z,6.07
2017-12-11T08:20:09.231Z,5.40
2017-12-11T08:21:25.052Z,6.87
2017-12-11T08:22:40.907Z,5.80
2017-12-11T08:23:56.729Z,5.97
2017-12-11T08:25:12.575Z,8.13
2017-12-11T08:26:28.426Z,6.27
2017-12-11T08:27:44.278Z,6.17
2017-12-11T08:29:00.118Z,7.30
2017-12-11T08:30:15.960Z,6.20
2017-12-11T08:31:31.811Z,5.70
2017-12-11T08:32:47.662Z,5.60
2017-12-11T08:34:03.524Z,6.37
2017-12-11T08:35:19.364Z,6.70
2017-12-11T08:36:35.196Z,5.30
2017-12-11T08:37:51.033Z,4.90
2017-12-11T08:39:07.057Z,6.27
2017-12-11T08:40:22.877Z,5.28
2017-12-11T08:41:38.718Z,4.67
2017-12-11T08:42:54.572Z,5.47
2017-12-11T08:44:10.428Z,6.00
2017-12-11T08:45:26.281Z,6.57
2017-12-11T08:46:42.105Z,5.27
2017-12-11T08:47:57.922Z,4.90
2017-12-11T08:49:13.772Z,4.90
2017-12-11T08:50:29.602Z,4.20
2017-12-11T08:51:45.415Z,4.47
2017-12-11T08:53:01.272Z,5.30
2017-12-11T08:54:17.126Z,4.67
2017-12-11T08:55:32.959Z,4.97
2017-12-11T08:56:48.818Z,5.20
2017-12-11T08:58:04.668Z,5.37
2017-12-11T08:59:20.527Z,5.40
2017-12-11T09:00:36.368Z,5.37
2017-12-11T09:01:52.223Z,4.40
2017-12-11T09:03:08.047Z,3.77
2017-12-11T09:04:23.903Z,4.27
2017-12-11T09:05:39.744Z,4.93
2017-12-11T09:06:55.639Z,5.20
2017-12-11T09:08:11.477Z,4.47
2017-12-11T09:09:27.327Z,4.53
2017-12-11T09:10:43.199Z,5.20
2017-12-11T09:11:59.039Z,4.20
2017-12-11T09:13:14.895Z,4.53
2017-12-11T09:14:30.739Z,4.17
2017-12-11T09:15:46.588Z,3.70
2017-12-11T09:17:02.434Z,4.00
2017-12-11T09:18:18.314Z,3.73
2017-12-11T09:19:34.135Z,3.43
2017-12-11T09:20:49.993Z,2.90
2017-12-11T09:22:05.854Z,4.00
2017-12-11T09:23:21.711Z,4.37
2017-12-11T09:24:37.563Z,3.53
2017-12-11T09:25:53.407Z,3.73
2017-12-11T09:27:09.266Z,3.40
2017-12-11T09:28:25.111Z,4.00
2017-12-11T09:29:40.958Z,4.07
2017-12-11T09:30:56.796Z,4.70
2017-12-11T09:32:12.665Z,3.57
2017-12-11T09:33:28.506Z,3.70
2017-12-11T09:34:44.336Z,3.57
2017-12-11T09:36:00.178Z,3.47
2017-12-11T09:37:16.039Z,4.07
2017-12-11T09:38:31.890Z,4.00
2017-12-11T09:39:47.715Z,3.23
2017-12-11T09:41:03.559Z,3.20
2017-12-11T09:42:19.435Z,3.40
2017-12-11T09:43:35.276Z,4.30
2017-12-11T09:44:51.126Z,3.60
2017-12-11T09:46:06.972Z,3.67
2017-12-11T09:47:23.416Z,3.57
2017-12-11T09:48:39.244Z,3.80
2017-12-11T09:49:55.079Z,3.00
2017-12-11T09:51:10.905Z,4.23
2017-12-11T09:52:26.759Z,3.13
2017-12-11T09:53:42.611Z,3.60
2017-12-11T09:54:58.467Z,3.20
2017-12-11T09:56:14.336Z,3.70
2017-12-11T09:57:30.165Z,3.57
2017-12-11T09:58:46.024Z,3.83
2017-12-11T10:00:01.861Z,3.40
2017-12-11T10:01:17.707Z,3.10
2017-12-11T10:02:34.302Z,2.97
2017-12-11T10:03:50.153Z,3.08
2017-12-11T10:05:05.984Z,3.53
2017-12-11T10:06:21.811Z,2.87
2017-12-11T10:07:37.672Z,3.70
2017-12-11T10:08:53.503Z,2.70
2017-12-11T10:10:09.329Z,3.07
2017-12-11T10:11:25.158Z,3.10
2017-12-11T10:12:40.994Z,3.37
2017-12-11T10:13:56.869Z,3.37
2017-12-11T10:15:12.719Z,2.63
2017-12-11T10:16:28.572Z,2.73
2017-12-11T10:17:44.395Z,3.40
2017-12-11T10:19:00.227Z,3.60
2017-12-11T10:20:16.085Z,2.90
2017-12-11T10:21:31.920Z,2.87
2017-12-11T10:22:47.762Z,2.50
2017-12-11T10:24:03.596Z,2.83
2017-12-11T10:25:19.451Z,3.07
2017-12-11T10:26:35.291Z,3.10
2017-12-11T10:27:51.155Z,2.77
2017-12-11T10:29:06.982Z,2.60
2017-12-11T10:30:22.839Z,3.33
2017-12-11T10:31:38.704Z,2.73
2017-12-11T10:32:54.538Z,2.80
2017-12-11T10:34:10.373Z,2.87
2017-12-11T10:35:26.229Z,3.83
2017-12-11T10:36:42.075Z,3.00
2017-12-11T10:37:57.909Z,2.80
2017-12-11T10:39:13.742Z,3.10
2017-12-11T10:40:29.588Z,2.53
2017-12-11T10:41:45.458Z,2.87
2017-12-11T10:43:01.302Z,3.23
2017-12-11T10:44:17.133Z,3.40
2017-12-11T10:45:32.976Z,2.30
2017-12-11T10:46:48.824Z,2.90
2017-12-11T10:48:04.675Z,3.13
2017-12-11T10:49:20.520Z,3.10
2017-12-11T10:50:36.351Z,2.60
2017-12-11T10:51:52.208Z,2.67
2017-12-11T10:53:08.039Z,2.83
2017-12-11T10:54:23.870Z,3.13
2017-12-11T10:55:39.730Z,2.87
2017-12-11T10:56:55.567Z,2.60
2017-12-11T10:58:11.407Z,3.37
2017-12-11T10:59:27.236Z,2.77
2017-12-11T11:00:43.066Z,3.80
2017-12-11T11:01:58.948Z,3.47
2017-12-11T11:03:14.792Z,3.60
2017-12-11T11:04:30.616Z,3.33
2017-12-11T11:05:46.476Z,3.00
2017-12-11T11:07:02.323Z,3.07
2017-12-11T11:08:18.164Z,2.97
2017-12-11T11:09:34.008Z,5.83
2017-12-11T11:10:49.844Z,8.00
2017-12-11T11:12:05.687Z,7.40
2017-12-11T11:13:21.562Z,7.83
2017-12-11T11:14:37.442Z,8.50
2017-12-11T11:15:53.234Z,9.07
2017-12-11T11:17:09.089Z,8.90
2017-12-11T11:18:24.965Z,9.00
2017-12-11T11:19:40.808Z,9.40
2017-12-11T11:20:56.672Z,10.30
2017-12-11T11:22:12.515Z,8.80
2017-12-11T11:23:28.370Z,9.70
2017-12-11T11:24:44.218Z,8.60
2017-12-11T11:26:00.082Z,8.20
2017-12-11T11:27:15.899Z,9.10
2017-12-11T11:28:31.736Z,8.00
2017-12-11T11:29:47.567Z,7.97
2017-12-11T11:31:03.391Z,8.00
2017-12-11T11:32:19.212Z,7.67
2017-12-11T11:33:35.067Z,7.10
2017-12-11T11:34:50.907Z,8.40
2017-12-11T11:36:06.775Z,7.47
2017-12-11T11:37:22.679Z,7.73
2017-12-11T11:38:38.507Z,6.67
2017-12-11T11:39:54.330Z,7.70
2017-12-11T11:41:10.168Z,8.33
2017-12-11T11:42:26.017Z,6.90
2017-12-11T11:43:41.879Z,7.07
2017-12-11T11:44:57.734Z,8.03
2017-12-11T11:46:13.591Z,7.03
2017-12-11T11:47:29.432Z,7.30
2017-12-11T11:48:45.316Z,7.73
2017-12-11T11:50:01.149Z,6.83
2017-12-11T11:51:16.998Z,6.47
2017-12-11T11:52:32.871Z,6.70
2017-12-11T11:53:48.715Z,5.93
2017-12-11T11:55:04.529Z,6.60
2017-12-11T11:56:20.352Z,6.00
2017-12-11T11:57:36.197Z,7.30
2017-12-11T11:58:52.055Z,6.33
2017-12-11T12:00:07.888Z,6.13
2017-12-11T12:01:23.719Z,6.83
2017-12-11T12:02:39.547Z,8.00
2017-12-11T12:03:55.386Z,5.43
2017-12-11T12:05:11.244Z,6.53
2017-12-11T12:06:27.099Z,6.80
2017-12-11T12:07:42.940Z,6.07
2017-12-11T12:08:58.817Z,5.80
2017-12-11T12:10:14.698Z,5.90
2017-12-11T12:11:30.532Z,6.17
2017-12-11T12:12:46.360Z,5.83
2017-12-11T12:14:02.231Z,6.17
2017-12-11T12:15:18.084Z,6.27
2017-12-11T12:16:33.983Z,7.60
2017-12-11T12:17:49.890Z,6.53
2017-12-11T12:19:05.719Z,5.67
2017-12-11T12:20:21.563Z,5.70
2017-12-11T12:21:37.423Z,6.00
2017-12-11T12:22:53.251Z,6.23
2017-12-11T12:24:09.090Z,5.90
2017-12-11T12:25:24.959Z,5.43
2017-12-11T12:26:40.807Z,5.27
2017-12-11T12:27:56.668Z,6.03
2017-12-11T12:29:12.535Z,6.30
2017-12-11T12:30:28.400Z,6.47
2017-12-11T12:31:44.239Z,5.67
2017-12-11T12:33:00.076Z,5.67
2017-12-11T12:34:15.909Z,6.00
2017-12-11T12:35:31.722Z,7.00
2017-12-11T12:36:47.571Z,4.77
2017-12-11T12:38:03.402Z,6.57
2017-12-11T12:39:19.231Z,5.10
2017-12-11T12:40:35.058Z,5.17
2017-12-11T12:41:50.883Z,5.90
2017-12-11T12:43:06.726Z,6.40
2017-12-11T12:44:22.563Z,6.00
2017-12-11T12:45:38.404Z,6.23
2017-12-11T12:46:54.246Z,5.90
2017-12-11T12:48:10.103Z,5.07
2017-12-11T12:49:25.980Z,5.00
2017-12-11T12:50:41.843Z,5.57
2017-12-11T12:51:57.666Z,5.07
2017-12-11T12:53:13.523Z,5.00
2017-12-11T12:54:29.369Z,5.77
2017-12-11T12:55:45.222Z,5.80
2017-12-11T12:57:01.078Z,5.57
2017-12-11T12:58:16.958Z,5.30
2017-12-11T12:59:32.816Z,5.60
2017-12-11T13:00:48.683Z,4.93
2017-12-11T13:02:04.515Z,5.70
2017-12-11T13:03:20.334Z,5.40
2017-12-11T13:04:36.251Z,5.30
2017-12-11T13:05:52.084Z,4.90
2017-12-11T13:07:07.934Z,5.17
2017-12-11T13:08:23.779Z,5.90
2017-12-11T13:09:39.631Z,4.90
2017-12-11T13:10:55.492Z,4.60
2017-12-11T13:12:11.349Z,4.33
2017-12-11T13:13:27.178Z,4.73
2017-12-11T13:14:43.066Z,5.07
2017-12-11T13:15:58.889Z,4.70
2017-12-11T13:17:14.743Z,5.57
2017-12-11T13:18:30.570Z,5.30
2017-12-11T13:19:46.443Z,4.77
2017-12-11T13:21:02.285Z,4.77
2017-12-11T13:22:18.132Z,5.00
2017-12-11T13:23:33.960Z,4.90
2017-12-11T13:24:49.824Z,4.60
2017-12-11T13:26:05.668Z,4.93
2017-12-11T13:27:21.514Z,4.67
2017-12-11T13:28:37.354Z,5.07
2017-12-11T13:29:53.208Z,5.37
2017-12-11T13:31:09.028Z,4.90
2017-12-11T13:32:24.879Z,4.27
2017-12-11T13:33:40.707Z,4.97
2017-12-11T13:34:56.560Z,5.40
2017-12-11T13:36:12.409Z,5.60
2017-12-11T13:37:28.231Z,4.10
2017-12-11T13:38:44.073Z,4.73
2017-12-11T13:39:59.939Z,4.70
2017-12-11T13:41:15.765Z,4.80
2017-12-11T13:42:31.584Z,4.20
2017-12-11T13:43:47.436Z,4.33
2017-12-11T13:45:03.299Z,4.80
2017-12-11T13:46:19.158Z,4.50
2017-12-11T13:47:35.003Z,4.20
2017-12-11T13:48:50.839Z,4.43
2017-12-11T13:50:06.708Z,4.40
2017-12-11T13:51:22.530Z,4.30
2017-12-11T13:52:38.364Z,4.60
2017-12-11T13:53:54.188Z,4.50
2017-12-11T13:55:10.027Z,3.97
2017-12-11T13:56:25.876Z,3.93
2017-12-11T13:57:41.737Z,4.10
2017-12-11T13:58:57.600Z,4.13
2017-12-11T14:00:13.415Z,4.40
2017-12-11T14:01:29.275Z,4.40
2017-12-11T14:02:45.099Z,4.53
2017-12-11T14:04:00.952Z,4.40
2017-12-11T14:05:16.796Z,4.20
2017-12-11T14:06:32.657Z,3.33
2017-12-11T14:07:48.543Z,4.50
2017-12-11T14:09:04.388Z,4.27
2017-12-11T14:10:20.219Z,4.30
2017-12-11T14:11:36.079Z,3.60
2017-12-11T14:12:51.921Z,4.20
2017-12-11T14:14:07.780Z,4.80
2017-12-11T14:15:23.601Z,4.27
2017-12-11T14:16:39.435Z,4.97
2017-12-11T14:17:55.295Z,3.90
2017-12-11T14:19:11.147Z,3.70
2017-12-11T14:20:26.971Z,4.10
2017-12-11T14:21:42.798Z,3.80
2017-12-11T14:22:58.610Z,4.13
2017-12-11T14:24:14.466Z,3.87
2017-12-11T14:25:30.296Z,3.23
2017-12-11T14:26:46.139Z,3.70
2017-12-11T14:28:01.992Z,4.00
2017-12-11T14:29:17.835Z,3.87
2017-12-11T14:30:33.674Z,3.40
2017-12-11T14:31:49.516Z,4.40
2017-12-11T14:33:05.355Z,4.27
2017-12-11T14:34:21.239Z,3.70
2017-12-11T14:35:37.056Z,4.40
2017-12-11T14:36:52.899Z,4.30
2017-12-11T14:38:08.761Z,4.33
2017-12-11T14:39:24.600Z,4.10
2017-12-11T14:40:40.457Z,4.17
2017-12-11T14:41:56.275Z,3.60
2017-12-11T14:43:12.123Z,3.93
2017-12-11T14:44:28.011Z,3.77
2017-12-11T14:45:43.899Z,3.40
2017-12-11T14:46:59.724Z,4.60
2017-12-11T14:48:15.554Z,3.37
2017-12-11T14:49:31.407Z,3.80
2017-12-11T14:50:47.243Z,3.93
2017-12-11T14:52:03.135Z,3.23
2017-12-11T14:53:18.949Z,4.13
2017-12-11T14:54:34.795Z,3.43
2017-12-11T14:55:50.666Z,4.10
2017-12-11T14:57:06.509Z,4.40
2017-12-11T14:58:22.336Z,3.57
2017-12-11T14:59:38.195Z,3.23
2017-12-11T15:00:54.049Z,4.50
2017-12-11T15:02:09.911Z,3.33
2017-12-11T15:03:25.727Z,3.87
2017-12-11T15:04:41.555Z,3.27
2017-12-11T15:05:57.396Z,3.67
2017-12-11T15:07:13.223Z,3.83
2017-12-11T15:08:29.072Z,3.20
2017-12-11T15:09:44.929Z,3.20
2017-12-11T15:11:00.772Z,4.33
2017-12-11T15:12:16.628Z,4.43
2017-12-11T15:13:32.480Z,3.73
2017-12-11T15:14:48.311Z,3.27
2017-12-11T15:16:04.173Z,3.77
2017-12-11T15:17:20.053Z,3.90
2017-12-11T15:18:35.887Z,3.40
2017-12-11T15:19:51.704Z,3.37
2017-12-11T15:21:07.579Z,3.13
2017-12-11T15:22:23.422Z,3.27
2017-12-11T15:23:39.263Z,3.67
2017-12-11T15:24:55.084Z,3.20
2017-12-11T15:26:10.938Z,3.33
2017-12-11T15:27:26.760Z,3.43
2017-12-11T15:28:42.604Z,3.67
2017-12-11T15:29:58.448Z,3.60
2017-12-11T15:31:14.296Z,3.40
2017-12-11T15:32:30.128Z,3.80
2017-12-11T15:33:45.958Z,4.30
2017-12-11T15:35:01.800Z,3.23
2017-12-11T15:36:17.638Z,3.07
2017-12-11T15:37:33.500Z,3.93
2017-12-11T15:38:49.323Z,4.40
2017-12-11T15:40:05.143Z,2.97
2017-12-11T15:41:20.991Z,3.40
2017-12-11T15:42:36.825Z,3.60
2017-12-11T15:43:52.814Z,3.40
2017-12-11T15:45:08.649Z,3.62
2017-12-11T15:46:24.522Z,3.40
2017-12-11T15:47:40.383Z,3.87
2017-12-11T15:48:56.247Z,2.80
2017-12-11T15:50:12.208Z,3.40
2017-12-11T15:51:28.055Z,2.92
2017-12-11T15:52:43.911Z,3.67
2017-12-11T15:53:59.747Z,3.30
2017-12-11T15:55:15.589Z,3.60
2017-12-11T15:56:31.442Z,3.30
2017-12-11T15:57:47.301Z,2.80
2017-12-11T15:59:03.141Z,3.27
2017-12-11T16:00:19.423Z,3.67
2017-12-11T16:01:35.292Z,3.62
2017-12-11T16:02:51.131Z,3.40
2017-12-11T16:04:06.982Z,3.40
2017-12-11T16:05:22.836Z,3.00
2017-12-11T16:06:38.678Z,3.47
2017-12-11T16:07:54.527Z,2.87
2017-12-11T16:09:10.368Z,3.30
2017-12-11T16:10:26.216Z,3.07
2017-12-11T16:11:42.053Z,2.73
2017-12-11T16:12:57.897Z,2.83
2017-12-11T16:14:13.752Z,3.07
2017-12-11T16:15:29.589Z,2.80
2017-12-11T16:16:45.416Z,2.87
2017-12-11T16:18:01.297Z,2.70
2017-12-11T16:19:17.144Z,3.30
2017-12-11T16:20:32.971Z,2.60
2017-12-11T16:21:48.811Z,2.80
2017-12-11T16:23:04.680Z,3.07
2017-12-11T16:24:20.638Z,3.10
2017-12-11T16:25:36.475Z,3.30
2017-12-11T16:26:52.316Z,3.23
2017-12-11T16:28:08.203Z,3.00
2017-12-11T16:29:24.040Z,2.90
2017-12-11T16:30:39.892Z,3.40
2017-12-11T16:31:55.729Z,3.43
2017-12-11T16:33:11.587Z,3.00
2017-12-11T16:34:27.447Z,2.50
2017-12-11T16:35:43.289Z,2.77
2017-12-11T16:36:59.135Z,2.80
2017-12-11T16:38:14.970Z,3.43
2017-12-11T16:39:30.848Z,2.67
2017-12-11T16:40:46.697Z,3.17
2017-12-11T16:42:02.551Z,2.63
2017-12-11T16:43:18.384Z,3.00
2017-12-11T16:44:34.205Z,3.00
2017-12-11T16:45:50.074Z,3.37
2017-12-11T16:47:05.925Z,2.80
2017-12-11T16:48:21.772Z,3.10
2017-12-11T16:49:37.612Z,2.43